Time;durP1;ratioP1;P1;durP2;ratioP2;P2;SDS_P1;SDS_P2;PMS_P1;PMS_P2;Temp;Humidity;BMP_temperature;BMP_pressure;BME280_temperature;BME280_humidity;BME280_pressure;Samples;Min_cycle;Max_cycle;Signal;HPM_P1;HPM_P2
2023/07/09 00:01:43;;;;;;;15.82;11.73;;;;;;;23.34;100.00;99158.13;4974037;28;20081;-84
2023/07/09 00:04:28;;;;;;;17.80;12.70;;;;;;;23.35;100.00;99159.72;4973613;28;20465;-84
2023/07/09 00:07:27;;;;;;;15.85;12.35;;;;;;;23.28;100.00;99169.97;4959997;28;20077;-85
2023/07/09 00:10:19;;;;;;;15.45;13.15;;;;;;;23.27;100.00;99163.78;4973354;28;20089;-83
2023/07/09 00:13:03;;;;;;;19.10;14.43;;;;;;;23.16;100.00;99160.31;4973810;28;20126;-84
2023/07/09 00:15:49;;;;;;;16.92;13.43;;;;;;;23.03;100.00;99152.91;4972158;28;20553;-84
2023/07/09 00:18:34;;;;;;;17.15;13.50;;;;;;;22.86;100.00;99156.72;4974808;28;20133;-85
2023/07/09 00:21:21;;;;;;;16.75;12.50;;;;;;;22.83;100.00;99159.94;4955561;28;20108;-83
2023/07/09 00:24:05;;;;;;;13.30;11.70;;;;;;;22.74;100.00;99164.25;4978210;28;20129;-82
2023/07/09 00:26:49;;;;;;;15.63;12.90;;;;;;;22.59;100.00;99155.19;4992095;28;20170;-80
2023/07/09 00:29:33;;;;;;;15.95;11.55;;;;;;;22.52;100.00;99152.00;4976018;28;20138;-82
2023/07/09 00:32:22;;;;;;;13.25;11.15;;;;;;;22.45;100.00;99151.47;4992185;28;21951;-80
2023/07/09 00:35:07;;;;;;;16.02;12.20;;;;;;;22.36;100.00;99157.34;4977754;28;20504;-80
2023/07/09 00:37:51;;;;;;;22.63;11.98;;;;;;;22.25;100.00;99150.41;4989980;28;20096;-79
2023/07/09 00:40:35;;;;;;;18.98;11.93;;;;;;;22.10;100.00;99145.88;4991178;28;20077;-80
2023/07/09 00:43:19;;;;;;;17.38;12.10;;;;;;;22.08;100.00;99145.34;4992753;28;20423;-81
2023/07/09 00:46:26;;;;;;;14.77;11.18;;;;;;;22.07;100.00;99147.22;4990928;28;20048;-81
2023/07/09 00:49:10;;;;;;;14.63;11.07;;;;;;;21.94;100.00;99150.41;4992572;28;20431;-81
2023/07/09 00:52:01;;;;;;;12.15;9.55;;;;;;;21.83;100.00;99139.75;4977156;28;20114;-82
2023/07/09 00:54:46;;;;;;;15.73;9.98;;;;;;;21.78;100.00;99136.28;4991055;28;20048;-80
2023/07/09 00:57:31;;;;;;;14.05;11.05;;;;;;;21.67;100.00;99130.91;4991718;28;20096;-81
2023/07/09 01:00:17;;;;;;;13.55;10.70;;;;;;;21.65;100.00;99127.69;4977335;28;20103;-80
2023/07/09 01:03:02;;;;;;;12.60;10.18;;;;;;;21.63;100.00;99121.00;4991113;28;20058;-80
2023/07/09 01:05:51;;;;;;;13.50;9.50;;;;;;;21.58;100.00;99119.13;4992142;28;20512;-80
2023/07/09 01:08:41;;;;;;;9.43;8.10;;;;;;;21.53;100.00;99125.25;4990877;28;20115;-81
2023/07/09 01:11:25;;;;;;;13.70;10.10;;;;;;;21.38;100.00;99133.22;4991225;28;20073;-80
2023/07/09 01:14:12;;;;;;;17.80;10.32;;;;;;;21.22;100.00;99141.22;4977761;28;20125;-81
2023/07/09 01:17:01;;;;;;;17.20;11.48;;;;;;;21.25;100.00;99142.56;4991931;28;20053;-84
2023/07/09 01:19:50;;;;;;;15.50;10.52;;;;;;;21.24;100.00;99135.59;4991932;28;20053;-81
2023/07/09 01:22:36;;;;;;;14.95;11.27;;;;;;;21.16;100.00;99136.13;4992021;28;20057;-82
2023/07/09 01:25:21;;;;;;;14.25;10.35;;;;;;;21.12;100.00;99130.50;4990989;28;20093;-80
2023/07/09 01:28:05;;;;;;;16.35;11.65;;;;;;;21.06;100.00;99123.56;4991326;28;20080;-81
2023/07/09 01:30:53;;;;;;;14.02;10.43;;;;;;;20.98;100.00;99130.19;4990500;28;20440;-81
2023/07/09 01:33:39;;;;;;;13.57;10.82;;;;;;;20.94;100.00;99131.78;4991075;28;20120;-81
2023/07/09 01:36:23;;;;;;;14.15;10.77;;;;;;;20.92;100.00;99132.03;4977241;28;20061;-80
2023/07/09 01:39:08;;;;;;;13.02;11.02;;;;;;;20.96;100.00;99122.44;4991558;28;20551;-81
2023/07/09 01:41:52;;;;;;;13.75;11.77;;;;;;;20.86;100.00;99122.41;4991127;28;20113;-81
2023/07/09 01:44:38;;;;;;;10.75;9.63;;;;;;;20.89;100.00;99121.88;4990760;28;20546;-80
2023/07/09 01:47:23;;;;;;;14.23;10.93;;;;;;;20.78;100.00;99120.19;4991307;28;20057;-80
2023/07/09 01:50:09;;;;;;;16.60;11.07;;;;;;;21.00;100.00;99124.59;4991073;28;20404;-81
2023/07/09 01:52:55;;;;;;;15.82;10.23;;;;;;;20.97;100.00;99118.72;4975774;28;20044;-81
2023/07/09 01:55:39;;;;;;;13.00;9.85;;;;;;;21.02;100.00;99122.44;4989941;28;20052;-81
2023/07/09 01:58:24;;;;;;;15.15;10.13;;;;;;;20.93;100.00;99122.97;4976127;28;20045;-81
2023/07/09 02:01:09;;;;;;;14.98;10.00;;;;;;;20.92;100.00;99110.69;4991172;28;20053;-81
2023/07/09 02:03:53;;;;;;;13.75;9.80;;;;;;;20.87;100.00;99110.69;4976366;28;20122;-83
2023/07/09 02:06:37;;;;;;;18.00;11.25;;;;;;;20.87;100.00;99113.34;4976065;28;20056;-80
2023/07/09 02:09:21;;;;;;;14.80;10.85;;;;;;;20.88;100.00;99120.28;4989985;28;20045;-80
2023/07/09 02:12:06;;;;;;;18.38;11.23;;;;;;;20.89;100.00;99123.75;4990092;28;20044;-81
2023/07/09 02:14:50;;;;;;;16.85;12.05;;;;;;;20.86;100.00;99122.41;4991734;28;20507;-81
2023/07/09 02:17:35;;;;;;;17.08;11.00;;;;;;;20.95;100.00;99115.50;4990088;28;20169;-81
2023/07/09 02:20:19;;;;;;;17.05;11.05;;;;;;;20.97;100.00;99124.03;4990364;28;20040;-82
2023/07/09 02:23:04;;;;;;;17.13;11.93;;;;;;;21.05;100.00;99132.63;4990693;28;20109;-83
2023/07/09 02:25:48;;;;;;;19.65;12.57;;;;;;;21.05;100.00;99119.28;4989837;28;20092;-83
2023/07/09 02:28:32;;;;;;;19.92;12.95;;;;;;;20.97;100.00;99124.03;4979648;28;20044;-84
2023/07/09 02:31:16;;;;;;;25.77;14.30;;;;;;;20.90;100.00;99123.50;4990348;28;20093;-81
2023/07/09 02:34:00;;;;;;;21.02;13.65;;;;;;;21.02;100.00;99123.25;4990504;28;20121;-81
2023/07/09 02:36:46;;;;;;;18.25;11.73;;;;;;;21.04;100.00;99129.13;4989829;28;20071;-81
2023/07/09 02:39:30;;;;;;;21.00;13.55;;;;;;;20.98;100.00;99128.31;4990259;28;20064;-80
2023/07/09 02:42:17;;;;;;;22.55;14.18;;;;;;;20.96;100.00;99122.44;4990757;28;20111;-81
2023/07/09 02:45:02;;;;;;;18.85;13.25;;;;;;;20.95;100.00;99130.72;4989328;28;20045;-82
2023/07/09 02:47:47;;;;;;;25.25;15.35;;;;;;;20.78;100.00;99126.34;4990221;28;20534;-81
2023/07/09 02:50:31;;;;;;;24.25;15.75;;;;;;;20.80;100.00;99123.44;4976367;28;20053;-81
2023/07/09 02:53:15;;;;;;;19.60;13.80;;;;;;;20.87;100.00;99132.03;4989623;28;20033;-83
2023/07/09 02:55:59;;;;;;;25.63;14.90;;;;;;;20.82;100.00;99115.97;4988810;28;20045;-81
2023/07/09 02:58:43;;;;;;;21.77;14.85;;;;;;;20.66;100.00;99123.91;4990290;28;20042;-83
2023/07/09 03:01:27;;;;;;;21.08;15.00;;;;;;;20.78;100.00;99117.53;4974595;28;20392;-83
2023/07/09 03:04:11;;;;;;;30.17;16.60;;;;;;;20.88;100.00;99117.63;4989307;28;20439;-83
2023/07/09 03:06:55;;;;;;;23.15;16.13;;;;;;;20.73;100.00;99110.31;4988698;28;20077;-82
2023/07/09 03:09:39;;;;;;;21.45;15.50;;;;;;;20.69;100.00;99112.72;4990490;28;20112;-80
2023/07/09 03:12:23;;;;;;;28.15;16.67;;;;;;;20.64;100.00;99131.34;4989745;28;20071;-83
2023/07/09 03:15:08;;;;;;;27.20;17.35;;;;;;;20.63;100.00;99136.94;4990396;28;20502;-81
2023/07/09 03:17:52;;;;;;;29.75;16.88;;;;;;;20.68;100.00;99137.78;4988397;28;20132;-80
2023/07/09 03:20:38;;;;;;;25.77;16.65;;;;;;;20.71;100.00;99139.09;4988283;28;20353;-80
2023/07/09 03:23:22;;;;;;;23.98;16.35;;;;;;;20.88;100.00;99146.16;4990148;28;20108;-79
2023/07/09 03:26:06;;;;;;;35.38;17.67;;;;;;;20.59;100.00;99139.31;4988701;28;20050;-79
2023/07/09 03:28:51;;;;;;;42.95;19.40;;;;;;;20.71;100.00;99140.97;4973533;28;20053;-79
2023/07/09 03:31:35;;;;;;;32.30;17.17;;;;;;;20.67;100.00;99156.69;4989744;28;20102;-80
2023/07/09 03:34:19;;;;;;;32.30;17.65;;;;;;;20.61;100.00;99153.19;4989704;28;20512;-80
2023/07/09 03:37:03;;;;;;;40.10;20.02;;;;;;;20.61;100.00;99149.72;4989224;28;20515;-80
2023/07/09 03:39:48;;;;;;;35.90;18.58;;;;;;;20.68;100.00;99160.97;4989699;28;20049;-79
2023/07/09 03:42:31;;;;;;;30.63;17.20;;;;;;;20.72;100.00;99163.91;4990255;28;20072;-80
2023/07/09 03:45:15;;;;;;;34.10;18.55;;;;;;;20.71;100.00;99167.66;4975596;28;20053;-79
2023/07/09 03:48:00;;;;;;;32.63;18.83;;;;;;;20.64;100.00;99149.22;4988836;28;20128;-80
2023/07/09 03:50:46;;;;;;;34.88;19.42;;;;;;;20.70;100.00;99156.16;4978362;28;20041;-80
2023/07/09 03:53:30;;;;;;;33.25;19.17;;;;;;;20.65;100.00;99148.97;4991933;28;20459;-81
2023/07/09 03:56:14;;;;;;;31.02;17.75;;;;;;;20.84;100.00;99159.22;4992832;28;20104;-80
2023/07/09 03:58:58;;;;;;;31.48;19.50;;;;;;;20.75;100.00;99166.06;4993249;28;20409;-80
2023/07/09 04:01:46;;;;;;;35.60;19.63;;;;;;;20.62;100.00;99165.47;4993054;28;20045;-79
2023/07/09 04:04:29;;;;;;;36.33;19.25;;;;;;;20.80;100.00;99171.44;4993439;28;20053;-79
2023/07/09 04:07:14;;;;;;;48.03;23.73;;;;;;;20.78;100.00;99173.53;4992994;28;20209;-80
2023/07/09 04:09:57;;;;;;;54.83;25.90;;;;;;;20.54;100.00;99169.44;4992210;28;20045;-82
2023/07/09 04:12:41;;;;;;;61.97;28.17;;;;;;;20.72;100.00;99169.25;4992378;28;20078;-80
2023/07/09 04:15:26;;;;;;;58.08;27.98;;;;;;;20.50;100.00;99167.53;4978271;28;20109;-79
2023/07/09 04:18:11;;;;;;;54.58;28.00;;;;;;;20.51;100.00;99174.47;4993555;28;20065;-79
2023/07/09 04:20:55;;;;;;;53.22;26.75;;;;;;;20.46;100.00;99177.13;4992857;28;20069;-82
2023/07/09 04:23:39;;;;;;;54.70;28.55;;;;;;;20.54;100.00;99176.63;4992401;28;20074;-82
2023/07/09 04:26:23;;;;;;;56.60;28.25;;;;;;;20.64;100.00;99195.38;4991988;28;21452;-80
2023/07/09 04:29:07;;;;;;;53.35;26.40;;;;;;;20.61;100.00;99195.84;4977806;28;20105;-79
2023/07/09 04:31:51;;;;;;;46.97;25.88;;;;;;;20.58;100.00;99204.38;4992731;28;20224;-78
2023/07/09 04:34:35;;;;;;;57.03;27.95;;;;;;;20.62;100.00;99208.13;4992564;28;20126;-79
2023/07/09 04:37:19;;;;;;;53.67;27.48;;;;;;;20.41;100.00;99197.31;4991862;28;20144;-78
2023/07/09 04:40:06;;;;;;;57.25;28.70;;;;;;;20.55;100.00;99194.22;4992307;28;20062;-79
2023/07/09 04:42:50;;;;;;;57.70;26.48;;;;;;;20.63;100.00;99201.72;4991886;28;20045;-79
2023/07/09 04:45:34;;;;;;;47.55;26.98;;;;;;;20.48;100.00;99199.78;4991740;28;20053;-79
2023/07/09 04:48:18;;;;;;;47.50;25.35;;;;;;;20.51;100.00;99206.47;4991639;28;20444;-81
2023/07/09 04:51:03;;;;;;;44.95;22.17;;;;;;;20.58;100.00;99209.69;4990847;28;20130;-79
2023/07/09 04:53:46;;;;;;;49.83;23.27;;;;;;;20.58;100.00;99208.91;4976937;28;20396;-82
2023/07/09 04:56:30;;;;;;;36.20;21.83;;;;;;;20.61;100.00;99209.19;4991971;28;20507;-81
2023/07/09 04:59:14;;;;;;;49.88;24.27;;;;;;;20.66;100.00;99193.25;4991777;28;20034;-81
2023/07/09 05:01:59;;;;;;;42.75;22.40;;;;;;;20.62;100.00;99192.13;4991106;28;20046;-82
2023/07/09 05:04:43;;;;;;;45.78;23.00;;;;;;;20.62;100.00;99197.47;4992506;28;20097;-80
2023/07/09 05:07:27;;;;;;;42.50;23.58;;;;;;;20.60;100.00;99199.59;4991925;28;20093;-79
2023/07/09 05:10:11;;;;;;;51.88;22.10;;;;;;;20.76;100.00;99202.34;4990433;28;20129;-81
2023/07/09 05:12:56;;;;;;;37.85;20.95;;;;;;;20.78;100.00;99200.22;4991156;28;20089;-81
2023/07/09 05:15:41;;;;;;;38.08;19.08;;;;;;;20.87;100.00;99197.91;4992862;28;20045;-84
2023/07/09 05:18:25;;;;;;;41.72;18.88;;;;;;;20.75;100.00;99198.06;4977636;28;20558;-85
2023/07/09 05:21:09;;;;;;;42.55;19.95;;;;;;;20.83;100.00;99210.94;4977788;28;20150;-83
2023/07/09 05:23:54;;;;;;;39.35;19.08;;;;;;;20.82;100.00;99214.69;4990721;28;20453;-82
2023/07/09 05:26:38;;;;;;;35.38;18.42;;;;;;;20.81;100.00;99221.06;4990277;28;20041;-81
2023/07/09 05:29:23;;;;;;;34.60;17.42;;;;;;;20.82;100.00;99209.34;4990416;28;20144;-81
2023/07/09 05:32:07;;;;;;;35.50;17.45;;;;;;;20.77;100.00;99198.63;4974001;28;20164;-80
2023/07/09 05:34:50;;;;;;;31.00;15.13;;;;;;;20.85;100.00;99211.53;4991556;28;21696;-80
2023/07/09 05:37:36;;;;;;;34.97;16.50;;;;;;;20.98;100.00;99223.59;4994341;28;20048;-80
2023/07/09 05:40:21;;;;;;;31.52;15.63;;;;;;;21.16;100.00;99221.53;4992658;28;20049;-81
2023/07/09 05:43:05;;;;;;;33.88;16.00;;;;;;;20.94;100.00;99220.63;4975179;28;20068;-81
2023/07/09 05:45:49;;;;;;;34.47;15.75;;;;;;;20.94;100.00;99222.50;4986858;28;20152;-80
2023/07/09 05:48:33;;;;;;;35.10;15.05;;;;;;;21.05;100.00;99234.03;4987525;28;20388;-80
2023/07/09 05:51:17;;;;;;;33.40;15.50;;;;;;;21.11;100.00;99236.44;4976226;28;20141;-80
2023/07/09 05:54:01;;;;;;;37.42;17.88;;;;;;;21.14;100.00;99245.81;4988610;28;20053;-80
2023/07/09 05:56:45;;;;;;;40.70;17.73;;;;;;;21.09;100.00;99245.78;4989911;28;20401;-83
2023/07/09 05:59:29;;;;;;;38.75;18.95;;;;;;;21.20;100.00;99242.09;4988761;28;20046;-83
2023/07/09 06:02:19;;;;;;;38.38;19.27;;;;;;;21.33;100.00;99232.00;4975036;28;20044;-80
2023/07/09 06:05:03;;;;;;;39.72;18.02;;;;;;;21.43;100.00;99231.25;4990726;28;20053;-80
2023/07/09 06:07:47;;;;;;;33.72;16.55;;;;;;;21.27;100.00;99228.50;4990416;28;20053;-82
2023/07/09 06:10:31;;;;;;;33.00;15.18;;;;;;;21.20;100.00;99219.94;4991951;28;20152;-82
2023/07/09 06:13:15;;;;;;;26.38;13.70;;;;;;;21.31;100.00;99223.47;4975417;28;20100;-83
2023/07/09 06:16:00;;;;;;;31.20;14.63;;;;;;;21.44;100.00;99233.66;4976800;28;20044;-83
2023/07/09 06:18:44;;;;;;;29.45;15.00;;;;;;;21.57;100.00;99235.03;4989541;28;20092;-82
2023/07/09 06:21:28;;;;;;;36.70;16.45;;;;;;;21.62;100.00;99228.91;4989802;28;20518;-82
2023/07/09 06:24:13;;;;;;;28.73;16.60;;;;;;;21.90;100.00;99232.19;4990850;28;20037;-83
2023/07/09 06:26:58;;;;;;;36.35;17.88;;;;;;;21.90;100.00;99235.66;4991393;28;20507;-82
2023/07/09 06:29:43;;;;;;;35.15;17.52;;;;;;;22.10;100.00;99240.25;4990819;28;20435;-82
2023/07/09 06:32:27;;;;;;;32.40;17.73;;;;;;;22.34;100.00;99242.38;4991286;28;20053;-84
2023/07/09 06:35:11;;;;;;;36.90;18.38;;;;;;;22.29;100.00;99231.69;4992652;28;20101;-84
2023/07/09 06:37:55;;;;;;;39.13;17.58;;;;;;;22.42;100.00;99237.59;4976655;28;20045;-81
2023/07/09 06:40:39;;;;;;;30.05;16.52;;;;;;;22.79;100.00;99244.50;4990993;28;20554;-84
2023/07/09 06:43:23;;;;;;;28.13;17.48;;;;;;;23.11;100.00;99262.09;4991407;28;20656;-83
2023/07/09 06:46:11;;;;;;;32.30;17.70;;;;;;;23.25;100.00;99257.81;4991764;28;20527;-84
2023/07/09 06:48:55;;;;;;;32.10;17.95;;;;;;;23.42;100.00;99263.88;4988025;28;20049;-82
2023/07/09 06:51:39;;;;;;;24.73;15.05;;;;;;;23.26;100.00;99280.00;4991007;28;20048;-83
2023/07/09 06:54:23;;;;;;;27.92;16.48;;;;;;;23.60;100.00;99267.84;4991246;28;20045;-82
2023/07/09 06:57:07;;;;;;;30.20;17.13;;;;;;;23.64;100.00;99252.81;4976254;28;20049;-82
2023/07/09 06:59:51;;;;;;;26.88;14.45;;;;;;;23.61;100.00;99251.47;4989887;28;20112;-82
2023/07/09 07:02:36;;;;;;;27.02;15.77;;;;;;;23.81;100.00;99269.34;4990714;28;20092;-82
2023/07/09 07:05:20;;;;;;;36.67;18.38;;;;;;;23.63;100.00;99278.78;4976053;28;20042;-82
2023/07/09 07:08:06;;;;;;;31.52;17.85;;;;;;;23.03;100.00;99281.41;4976468;28;20096;-81
2023/07/09 07:11:01;;;;;;;30.45;16.98;;;;;;;22.81;100.00;99269.94;4974720;28;20077;-83
2023/07/09 07:13:48;;;;;;;31.50;18.20;;;;;;;22.76;100.00;99274.47;4989994;28;20571;-82
2023/07/09 07:16:32;;;;;;;35.85;19.25;;;;;;;23.02;100.00;99279.81;4989778;28;20053;-86
2023/07/09 07:19:16;;;;;;;36.47;19.33;;;;;;;23.31;100.00;99293.41;4990592;28;20032;-82
2023/07/09 07:22:00;;;;;;;28.15;16.48;;;;;;;23.53;100.00;99278.84;4989956;28;20110;-82
2023/07/09 07:24:44;;;;;;;25.50;14.00;;;;;;;23.82;100.00;99276.28;4991610;28;20097;-82
2023/07/09 07:27:28;;;;;;;25.33;12.57;;;;;;;23.79;100.00;99255.41;4993544;28;20068;-82
2023/07/09 07:30:12;;;;;;;23.92;11.68;;;;;;;23.74;100.00;99268.81;4992588;28;20056;-82
2023/07/09 07:32:57;;;;;;;21.15;10.40;;;;;;;24.00;100.00;99271.38;4979574;28;20160;-85
2023/07/09 07:35:41;;;;;;;18.20;7.80;;;;;;;24.15;100.00;99267.81;4979609;28;20037;-85
2023/07/09 07:38:25;;;;;;;13.82;7.82;;;;;;;24.26;100.00;99257.78;4994638;28;20173;-83
2023/07/09 07:41:08;;;;;;;14.30;8.27;;;;;;;23.91;100.00;99243.53;4993329;28;20050;-84
2023/07/09 07:43:53;;;;;;;14.38;7.72;;;;;;;24.16;100.00;99247.13;4981353;28;20049;-83
2023/07/09 07:46:37;;;;;;;13.07;7.90;;;;;;;24.34;100.00;99238.41;4982234;28;20158;-87
2023/07/09 07:49:21;;;;;;;12.40;7.30;;;;;;;24.42;100.00;99263.81;4984355;28;20036;-88
2023/07/09 07:52:05;;;;;;;12.48;7.07;;;;;;;24.55;100.00;99281.16;4994905;28;20045;-88
2023/07/09 07:54:50;;;;;;;16.48;6.22;;;;;;;24.71;100.00;99283.72;4995554;28;20060;-87
2023/07/09 07:57:35;;;;;;;19.65;7.68;;;;;;;24.58;100.00;99301.28;4993052;28;20136;-84
2023/07/09 08:00:19;;;;;;;15.07;8.00;;;;;;;24.66;100.00;99308.69;4979271;28;20044;-84
2023/07/09 08:03:03;;;;;;;13.88;6.82;;;;;;;24.58;100.00;99331.59;4991199;28;20413;-88
2023/07/09 08:05:49;;;;;;;15.15;7.07;;;;;;;24.16;100.00;99316.84;4997091;28;20046;-89
2023/07/09 08:08:34;;;;;;;9.52;6.57;;;;;;;24.29;100.00;99304.72;4998330;28;20105;-89
2023/07/09 08:11:18;;;;;;;12.07;7.07;;;;;;;24.31;100.00;99305.25;4995793;28;20092;-89
2023/07/09 08:14:02;;;;;;;12.80;7.57;;;;;;;24.21;100.00;99319.53;4993475;28;20143;-86
2023/07/09 08:16:46;;;;;;;14.73;8.10;;;;;;;24.22;100.00;99326.50;4979196;28;20092;-86
2023/07/09 08:19:31;;;;;;;15.20;8.55;;;;;;;24.21;100.00;99346.34;4993234;28;20049;-86
2023/07/09 08:22:16;;;;;;;16.73;9.07;;;;;;;24.14;100.00;99343.97;4991522;28;20076;-85
2023/07/09 08:25:01;;;;;;;16.27;8.70;;;;;;;24.01;100.00;99337.31;4993147;28;20073;-84
2023/07/09 08:27:45;;;;;;;16.27;9.00;;;;;;;24.12;100.00;99337.28;4993770;28;20037;-84
2023/07/09 08:30:29;;;;;;;19.27;9.60;;;;;;;24.25;100.00;99337.44;4992636;28;20113;-85
2023/07/09 08:33:13;;;;;;;18.92;8.38;;;;;;;24.38;100.00;99336.03;4993870;28;20144;-82
2023/07/09 08:35:57;;;;;;;14.30;8.63;;;;;;;24.41;100.00;99328.50;4992542;28;20458;-86
2023/07/09 08:38:41;;;;;;;15.20;8.10;;;;;;;24.41;100.00;99317.78;4993665;28;20037;-85
2023/07/09 08:41:52;;;;;;;16.85;8.50;;;;;;;24.56;100.00;99335.63;4977196;28;20052;-88
2023/07/09 08:44:56;;;;;;;15.35;9.35;;;;;;;24.77;100.00;99331.72;4994088;28;20045;-88
2023/07/09 08:48:23;;;;;;;14.35;8.38;;;;;;;25.04;100.00;99327.72;4994310;28;20093;-86
2023/07/09 08:51:24;;;;;;;14.88;8.77;;;;;;;25.21;100.00;99324.59;4950955;29;20131;-88
2023/07/09 08:54:33;;;;;;;14.07;9.30;;;;;;;25.14;100.00;99321.44;4992230;28;20093;-87
2023/07/09 08:57:24;;;;;;;16.60;9.68;;;;;;;25.16;100.00;99321.97;4996050;28;20044;-89
2023/07/09 09:00:16;;;;;;;13.82;8.55;;;;;;;25.11;100.00;99313.94;4997300;28;20045;-88
2023/07/09 09:03:29;;;;;;;12.77;8.63;;;;;;;24.93;100.00;99328.91;4994432;28;20130;-89
2023/07/09 09:06:17;;;;;;;13.68;8.50;;;;;;;24.89;100.00;99311.78;4982957;28;20093;-89
2023/07/09 09:09:20;;;;;;;14.60;8.15;;;;;;;25.01;100.00;99314.06;4996451;28;20099;-90
2023/07/09 09:12:26;;;;;;;12.50;8.85;;;;;;;25.01;100.00;99303.31;4996199;28;20456;-88
2023/07/09 09:15:17;;;;;;;14.73;7.90;;;;;;;25.03;100.00;99306.53;4981696;28;20420;-88
2023/07/09 09:18:19;;;;;;;18.13;8.50;;;;;;;25.14;100.00;99313.38;4981755;28;20514;-89
2023/07/09 09:21:14;;;;;;;16.15;8.90;;;;;;;25.23;100.00;99314.38;4981284;28;20050;-89
2023/07/09 09:24:17;;;;;;;16.60;8.18;;;;;;;25.45;100.00;99313.03;4980802;28;21725;-91
2023/07/09 09:27:01;;;;;;;16.48;7.38;;;;;;;25.65;100.00;99316.59;4996472;28;20085;-89
2023/07/09 09:29:45;;;;;;;15.90;7.55;;;;;;;25.73;99.23;99315.94;4995873;28;20065;-89
2023/07/09 09:32:46;;;;;;;15.63;7.43;;;;;;;26.11;95.47;99323.25;4995585;28;20042;-89
2023/07/09 09:35:37;;;;;;;14.60;6.65;;;;;;;26.33;93.34;99311.88;4967633;28;20054;-89
2023/07/09 09:38:22;;;;;;;12.05;5.63;;;;;;;26.69;89.66;99299.75;4996030;28;20520;-90
2023/07/09 09:41:13;;;;;;;12.27;5.20;;;;;;;27.05;89.27;99311.78;4980213;28;20072;-88
2023/07/09 09:43:57;;;;;;;10.13;5.40;;;;;;;27.26;88.21;99316.78;4979418;28;20470;-88
2023/07/09 09:46:42;;;;;;;12.88;5.00;;;;;;;27.51;84.73;99310.94;4991920;28;20081;-88
2023/07/09 09:49:26;;;;;;;12.30;4.70;;;;;;;27.41;84.48;99313.00;4994801;28;20092;-89
2023/07/09 09:52:14;;;;;;;11.13;4.45;;;;;;;27.58;84.24;99307.03;4994892;28;20042;-89
2023/07/09 09:55:09;;;;;;;9.25;4.13;;;;;;;27.90;82.20;99313.34;4994424;28;20053;-88
2023/07/09 09:57:54;;;;;;;11.38;4.88;;;;;;;28.36;80.42;99306.91;4992859;28;20575;-88
2023/07/09 10:00:39;;;;;;;13.32;4.07;;;;;;;28.59;77.17;99306.91;4995432;28;20034;-89
2023/07/09 10:03:37;;;;;;;9.10;3.80;;;;;;;28.67;74.51;99307.25;4993932;28;20423;-89
2023/07/09 10:06:51;;;;;;;11.80;4.35;;;;;;;29.05;72.03;99304.94;4993673;28;20061;-89
2023/07/09 10:10:04;;;;;;;6.93;3.75;;;;;;;29.34;69.63;99308.19;4993678;28;20611;-83
2023/07/09 10:13:01;;;;;;;9.23;4.07;;;;;;;29.18;70.64;99300.50;4991189;28;20049;-83
2023/07/09 10:16:10;;;;;;;6.57;3.45;;;;;;;29.05;68.72;99317.63;4990752;28;20100;-83
2023/07/09 10:19:25;;;;;;;8.50;3.33;;;;;;;29.21;68.35;99313.41;4991613;28;20132;-83
2023/07/09 10:22:40;;;;;;;9.77;4.22;;;;;;;29.07;68.58;99318.91;4976027;28;20069;-83
2023/07/09 10:25:38;;;;;;;10.70;4.03;;;;;;;29.33;72.03;99312.00;4967242;28;20467;-83
2023/07/09 10:28:31;;;;;;;9.95;4.35;;;;;;;28.49;67.37;99307.13;4990968;28;20100;-83
2023/07/09 10:31:41;;;;;;;8.18;4.03;;;;;;;27.96;68.08;99306.75;4977019;28;20077;-83
2023/07/09 10:34:31;;;;;;;9.45;3.90;;;;;;;27.47;70.24;99307.19;4974252;28;20092;-82
2023/07/09 10:37:40;;;;;;;12.13;4.15;;;;;;;27.23;72.51;99302.81;4991299;28;20121;-83
2023/07/09 10:40:40;;;;;;;11.63;3.97;;;;;;;26.69;72.81;99291.69;4976600;28;20126;-83
2023/07/09 10:43:35;;;;;;;13.82;3.97;;;;;;;26.38;76.96;99314.53;4976621;28;20080;-83
2023/07/09 10:46:24;;;;;;;11.13;4.30;;;;;;;26.25;73.00;99306.41;4976148;28;20586;-82
2023/07/09 10:49:15;;;;;;;14.18;4.20;;;;;;;26.29;75.91;99316.25;4976116;28;20045;-82
2023/07/09 10:52:05;;;;;;;10.95;3.72;;;;;;;25.57;71.37;99311.88;4976378;28;20104;-83
2023/07/09 10:55:23;;;;;;;9.88;3.85;;;;;;;25.80;74.92;99324.47;4975792;28;20073;-84
2023/07/09 10:58:24;;;;;;;11.38;4.25;;;;;;;26.07;74.80;99314.94;4975845;28;20436;-83
2023/07/09 11:01:15;;;;;;;12.52;4.00;;;;;;;26.46;73.05;99318.44;4990866;28;20033;-82
2023/07/09 11:04:06;;;;;;;9.13;3.63;;;;;;;25.57;68.34;99311.88;4974512;28;20092;-83
2023/07/09 11:06:54;;;;;;;11.60;3.83;;;;;;;25.83;75.49;99311.53;4990012;28;20354;-83
2023/07/09 11:09:45;;;;;;;11.68;3.55;;;;;;;25.66;71.89;99318.19;4975470;28;20045;-82
2023/07/09 11:12:43;;;;;;;11.25;3.47;;;;;;;26.04;71.25;99330.84;4975863;28;20040;-83
2023/07/09 11:15:35;;;;;;;8.32;3.40;;;;;;;26.21;76.15;99333.88;4976124;28;20373;-83
2023/07/09 11:18:30;;;;;;;8.75;3.60;;;;;;;26.31;74.04;99321.38;4990360;28;20392;-84
2023/07/09 11:21:16;;;;;;;11.07;3.65;;;;;;;26.22;76.84;99329.28;4975769;28;20111;-83
2023/07/09 11:24:01;;;;;;;9.63;2.97;;;;;;;26.34;73.12;99326.97;4990020;28;20040;-83
2023/07/09 11:26:48;;;;;;;12.40;3.65;;;;;;;26.25;70.14;99327.94;4975999;28;20606;-82
2023/07/09 11:29:34;;;;;;;13.27;3.53;;;;;;;26.48;71.93;99320.81;4988871;28;20045;-83
2023/07/09 11:32:22;;;;;;;10.70;3.75;;;;;;;26.21;74.87;99328.47;4975899;28;20388;-82
2023/07/09 11:35:08;;;;;;;11.85;3.50;;;;;;;26.36;71.96;99321.28;4974708;28;20507;-82
2023/07/09 11:37:54;;;;;;;12.15;3.60;;;;;;;26.41;74.94;99323.09;4975902;28;20120;-82
2023/07/09 11:40:49;;;;;;;7.63;3.25;;;;;;;26.43;72.54;99323.59;4975016;28;20115;-83
2023/07/09 11:43:48;;;;;;;7.40;2.92;;;;;;;26.37;72.52;99315.63;4975620;28;20041;-84
2023/07/09 11:46:39;;;;;;;9.43;3.20;;;;;;;26.56;71.46;99312.09;4989469;28;20036;-83
2023/07/09 11:49:27;;;;;;;7.70;3.22;;;;;;;26.67;70.29;99313.50;4990699;28;20041;-83
2023/07/09 11:52:12;;;;;;;7.68;3.33;;;;;;;26.70;69.90;99314.00;4975627;28;20092;-84
2023/07/09 11:54:56;;;;;;;15.40;4.30;;;;;;;26.92;71.35;99314.19;4989796;28;20054;-83
2023/07/09 11:57:40;;;;;;;8.38;3.03;;;;;;;26.96;70.58;99310.91;4976159;28;20149;-83
2023/07/09 12:00:28;;;;;;;9.63;3.25;;;;;;;26.84;68.86;99314.06;4975514;28;21380;-83
2023/07/09 12:03:20;;;;;;;10.23;3.42;;;;;;;26.93;70.70;99302.31;4975691;28;20132;-83
2023/07/09 12:06:23;;;;;;;10.18;3.72;;;;;;;27.25;72.20;99305.22;4990047;28;20065;-82
2023/07/09 12:09:15;;;;;;;7.43;3.22;;;;;;;27.45;68.69;99293.22;4989759;28;20515;-82
2023/07/09 12:11:59;;;;;;;7.72;2.92;;;;;;;27.56;63.01;99296.53;4978941;28;20088;-83
2023/07/09 12:14:43;;;;;;;8.57;3.30;;;;;;;27.59;64.62;99295.13;4992872;28;20105;-83
2023/07/09 12:17:30;;;;;;;7.25;2.88;;;;;;;27.52;65.65;99298.25;4978778;28;20041;-83
2023/07/09 12:20:14;;;;;;;10.07;3.20;;;;;;;27.67;63.15;99291.72;4993206;28;20065;-83
2023/07/09 12:22:58;;;;;;;8.63;3.45;;;;;;;27.63;62.71;99298.81;4978290;28;20108;-83
2023/07/09 12:25:48;;;;;;;7.32;2.78;;;;;;;27.65;64.38;99296.63;4978935;28;20049;-83
2023/07/09 12:28:32;;;;;;;5.82;2.92;;;;;;;27.92;63.07;99295.75;4991801;28;20097;-83
2023/07/09 12:31:16;;;;;;;9.55;2.88;;;;;;;27.73;63.80;99290.53;4992074;28;20045;-83
2023/07/09 12:34:00;;;;;;;7.10;2.80;;;;;;;27.84;61.15;99298.38;4993555;28;20053;-83
2023/07/09 12:36:49;;;;;;;7.15;3.05;;;;;;;28.19;63.87;99299.47;4993180;28;20041;-84
2023/07/09 12:39:34;;;;;;;9.30;3.08;;;;;;;28.33;62.42;99283.25;4992834;28;20069;-82
2023/07/09 12:42:32;;;;;;;9.02;3.15;;;;;;;28.81;64.73;99283.69;4993357;28;20050;-83
2023/07/09 12:45:20;;;;;;;7.20;3.15;;;;;;;29.10;63.93;99284.28;4978080;28;20507;-83
2023/07/09 12:48:05;;;;;;;7.07;3.10;;;;;;;30.05;63.15;99284.78;4977780;28;20041;-83
2023/07/09 12:50:51;;;;;;;10.93;3.05;;;;;;;30.49;62.13;99284.72;4992801;28;20455;-83